Time;durP1;ratioP1;P1;durP2;ratioP2;P2;SDS_P1;SDS_P2;PMS_P1;PMS_P2;Temp;Humidity;BMP_temperature;BMP_pressure;BME280_temperature;BME280_humidity;BME280_pressure;Samples;Min_cycle;Max_cycle;Signal;HPM_P1;HPM_P2
2021/07/12 00:00:31;;;;;;;10.97;6.00;;;12.10;99.90;;;;;;5071954;28;20174;-73
2021/07/12 00:02:59;;;;;;;9.87;5.57;;;12.20;99.90;;;;;;5071779;28;20224;-75
2021/07/12 00:05:28;;;;;;;9.60;4.90;;;12.20;99.90;;;;;;5071530;28;20183;-71
2021/07/12 00:07:55;;;;;;;8.97;4.83;;;12.40;99.90;;;;;;5071842;28;20210;-74
2021/07/12 00:10:25;;;;;;;9.17;4.83;;;12.50;99.90;;;;;;5071565;28;20297;-72
2021/07/12 00:12:54;;;;;;;8.77;4.70;;;12.70;99.90;;;;;;5073621;28;20190;-75
2021/07/12 00:15:23;;;;;;;9.33;4.90;;;12.80;99.90;;;;;;5074146;28;20167;-70
2021/07/12 00:17:51;;;;;;;9.10;5.17;;;13.00;99.90;;;;;;5074638;28;20592;-70
2021/07/12 00:20:19;;;;;;;10.30;4.63;;;13.10;99.90;;;;;;5067973;28;20190;-78
2021/07/12 00:22:48;;;;;;;9.53;4.77;;;13.20;99.90;;;;;;5065000;28;20276;-75
2021/07/12 00:25:16;;;;;;;12.17;5.40;;;13.10;99.90;;;;;;5055956;28;20185;-71
2021/07/12 00:27:44;;;;;;;10.07;5.27;;;13.10;99.90;;;;;;5072855;28;20736;-73
2021/07/12 00:30:15;;;;;;;8.60;4.87;;;13.30;99.90;;;;;;5063028;28;20169;-71
2021/07/12 00:32:43;;;;;;;12.13;4.87;;;13.40;99.90;;;;;;5074783;28;20179;-71
2021/07/12 00:35:12;;;;;;;13.30;5.63;;;13.50;99.90;;;;;;5075553;28;20187;-73
2021/07/12 00:37:53;;;;;;;11.87;4.33;;;13.60;99.90;;;;;;5075540;28;20245;-71
2021/07/12 00:40:23;;;;;;;11.03;3.90;;;13.60;99.90;;;;;;5075730;28;20179;-73
2021/07/12 00:42:51;;;;;;;9.43;4.60;;;13.60;99.90;;;;;;5072198;28;20180;-73
2021/07/12 00:45:22;;;;;;;12.30;5.27;;;13.80;99.90;;;;;;5087946;28;20527;-81
2021/07/12 00:47:52;;;;;;;8.50;4.77;;;13.90;99.90;;;;;;5067509;28;20293;-71
2021/07/12 00:50:21;;;;;;;13.20;5.53;;;13.90;99.90;;;;;;5055167;28;20198;-71
2021/07/12 00:52:50;;;;;;;10.40;4.77;;;14.00;99.90;;;;;;5064172;28;20167;-75
2021/07/12 00:55:49;;;;;;;15.37;5.23;;;14.10;99.90;;;;;;5064453;28;20179;-81
2021/07/12 00:58:27;;;;;;;11.57;5.37;;;14.00;99.90;;;;;;5071053;28;20186;-73
2021/07/12 01:01:06;;;;;;;11.63;5.70;;;14.00;99.90;;;;;;5074415;28;20191;-82
2021/07/12 01:03:34;;;;;;;11.10;5.93;;;14.20;99.90;;;;;;5077067;28;20186;-76
2021/07/12 01:06:02;;;;;;;14.63;5.70;;;14.10;99.90;;;;;;5074232;28;20184;-72
2021/07/12 01:08:29;;;;;;;14.40;6.07;;;14.00;99.90;;;;;;5072864;28;20214;-72
2021/07/12 01:11:03;;;;;;;16.63;6.23;;;14.00;99.90;;;;;;5073481;28;20181;-72
2021/07/12 01:13:51;;;;;;;14.43;6.67;;;13.90;99.90;;;;;;5074785;28;20179;-72
2021/07/12 01:16:36;;;;;;;14.90;6.63;;;14.00;99.90;;;;;;5074170;28;20295;-77
2021/07/12 01:19:53;;;;;;;15.17;6.33;;;14.10;99.90;;;;;;5072572;28;20187;-73
2021/07/12 01:22:46;;;;;;;19.03;6.50;;;14.40;99.90;;;;;;5048087;28;20207;-73
2021/07/12 01:25:43;;;;;;;10.17;5.53;;;14.40;99.90;;;;;;5060400;28;20182;-73
2021/07/12 01:28:44;;;;;;;15.70;6.53;;;14.50;99.90;;;;;;5074113;28;20211;-71
2021/07/12 01:31:35;;;;;;;9.57;5.37;;;14.60;99.90;;;;;;5070612;28;20179;-70
2021/07/12 01:34:10;;;;;;;16.80;6.23;;;14.90;99.90;;;;;;5074433;28;20171;-76
2021/07/12 01:36:44;;;;;;;14.93;6.10;;;15.10;99.90;;;;;;5074008;28;20253;-74
2021/07/12 01:39:21;;;;;;;13.40;5.70;;;15.50;99.90;;;;;;5073505;28;20151;-71
2021/07/12 01:42:12;;;;;;;11.37;5.23;;;15.80;99.90;;;;;;5073272;28;20260;-74
2021/07/12 01:44:48;;;;;;;13.07;4.97;;;16.00;99.90;;;;;;5072896;28;20179;-70
2021/07/12 01:47:42;;;;;;;9.10;4.10;;;15.90;99.90;;;;;;5073985;28;20171;-71
2021/07/12 01:50:28;;;;;;;9.57;4.43;;;15.70;99.90;;;;;;5053830;28;20628;-74
2021/07/12 01:53:22;;;;;;;9.17;3.97;;;15.70;99.90;;;;;;5070868;28;20532;-71
2021/07/12 01:55:58;;;;;;;9.10;3.87;;;15.40;99.90;;;;;;5074202;28;20169;-75
2021/07/12 01:58:41;;;;;;;8.87;4.33;;;15.40;99.90;;;;;;5073652;28;20178;-71
2021/07/12 02:01:12;;;;;;;12.50;4.63;;;15.40;99.90;;;;;;5073468;28;20213;-73
2021/07/12 02:03:41;;;;;;;10.63;4.60;;;15.50;99.90;;;;;;5073804;28;20189;-73
2021/07/12 02:06:10;;;;;;;12.03;4.30;;;15.80;99.90;;;;;;5073549;28;20526;-69
2021/07/12 02:08:46;;;;;;;12.17;4.30;;;15.90;99.90;;;;;;5072456;28;20697;-72
2021/07/12 02:11:16;;;;;;;10.13;3.87;;;16.20;99.90;;;;;;5066224;28;20538;-72
2021/07/12 02:13:50;;;;;;;9.23;3.27;;;16.40;99.90;;;;;;5055818;28;20636;-71
2021/07/12 02:16:21;;;;;;;16.80;3.63;;;16.70;99.90;;;;;;5071842;28;20191;-70
2021/07/12 02:18:50;;;;;;;8.57;2.77;;;17.00;99.90;;;;;;5057919;28;20185;-69
2021/07/12 02:21:18;;;;;;;9.17;2.93;;;17.30;99.90;;;;;;5073019;28;20182;-71
2021/07/12 02:23:47;;;;;;;9.87;2.50;;;17.10;99.90;;;;;;5072746;28;20719;-73
2021/07/12 02:26:15;;;;;;;10.70;2.83;;;17.20;99.90;;;;;;5072495;28;20560;-72
2021/07/12 02:28:44;;;;;;;8.73;3.13;;;17.20;99.90;;;;;;5072700;28;20211;-73
2021/07/12 02:31:15;;;;;;;7.20;2.43;;;17.00;99.90;;;;;;5062027;28;20177;-74
2021/07/12 02:33:45;;;;;;;10.20;2.80;;;16.90;99.90;;;;;;5093481;28;20212;-77
2021/07/12 02:36:13;;;;;;;9.93;3.20;;;16.80;99.90;;;;;;5083877;28;20623;-72
2021/07/12 02:38:42;;;;;;;9.80;2.90;;;16.70;99.90;;;;;;5063269;28;20583;-71
2021/07/12 02:41:13;;;;;;;6.53;2.57;;;16.60;99.90;;;;;;5080136;28;20196;-69
2021/07/12 02:43:41;;;;;;;15.43;6.27;;;16.30;99.90;;;;;;5082892;28;20182;-79
2021/07/12 02:46:09;;;;;;;12.87;7.07;;;16.30;99.90;;;;;;5071728;28;20265;-71
2021/07/12 02:48:37;;;;;;;10.70;3.83;;;16.40;99.90;;;;;;5056283;28;20214;-71
2021/07/12 02:51:12;;;;;;;10.07;4.30;;;16.40;99.90;;;;;;5073062;28;20181;-71
2021/07/12 02:54:00;;;;;;;11.03;3.67;;;16.40;99.90;;;;;;5072723;28;20177;-70
2021/07/12 02:56:27;;;;;;;10.07;2.43;;;16.70;99.90;;;;;;5072675;28;20213;-71
2021/07/12 02:58:54;;;;;;;6.47;3.00;;;16.70;99.90;;;;;;5054950;28;20185;-73
2021/07/12 03:01:22;;;;;;;6.80;2.80;;;16.90;99.90;;;;;;5054580;28;20194;-75
2021/07/12 03:03:54;;;;;;;7.50;2.50;;;17.00;99.90;;;;;;5070709;28;20222;-73
2021/07/12 03:06:27;;;;;;;13.00;4.43;;;17.30;99.90;;;;;;5072467;28;20179;-76
2021/07/12 03:09:07;;;;;;;7.17;2.50;;;17.50;99.90;;;;;;5072595;28;20252;-75
2021/07/12 03:12:13;;;;;;;9.60;3.03;;;17.90;99.90;;;;;;5072135;28;20581;-72
2021/07/12 03:15:02;;;;;;;8.90;4.30;;;18.10;99.90;;;;;;5066477;28;20179;-73
2021/07/12 03:17:33;;;;;;;11.47;5.00;;;17.90;99.90;;;;;;5068142;28;20187;-71
2021/07/12 03:20:04;;;;;;;8.27;3.10;;;18.00;99.90;;;;;;5069603;28;20214;-72
2021/07/12 03:22:33;;;;;;;11.40;5.47;;;18.30;99.90;;;;;;5067032;28;20314;-75
2021/07/12 03:25:01;;;;;;;8.90;5.50;;;18.40;99.90;;;;;;5070005;28;20659;-72
2021/07/12 03:27:30;;;;;;;11.40;5.03;;;18.30;99.90;;;;;;5067677;28;20213;-71
2021/07/12 03:29:59;;;;;;;11.57;5.20;;;18.30;99.90;;;;;;5063090;28;20191;-71
2021/07/12 03:32:30;;;;;;;9.63;4.80;;;18.50;99.90;;;;;;5070585;28;20186;-75
2021/07/12 03:34:59;;;;;;;9.37;4.00;;;18.90;99.90;;;;;;5068529;28;20198;-72
2021/07/12 03:37:27;;;;;;;12.80;3.83;;;18.90;99.90;;;;;;5071393;28;20187;-73
2021/07/12 03:39:56;;;;;;;10.67;3.47;;;19.00;99.90;;;;;;5071514;28;20229;-73
2021/07/12 03:42:25;;;;;;;13.30;3.50;;;19.30;99.90;;;;;;5071345;28;20187;-74
2021/07/12 03:44:53;;;;;;;9.57;3.43;;;19.60;99.90;;;;;;5067727;28;20309;-77
2021/07/12 03:47:26;;;;;;;10.00;3.27;;;19.30;99.90;;;;;;5073199;28;20210;-72
2021/07/12 03:49:53;;;;;;;6.40;2.43;;;18.60;99.90;;;;;;5075258;28;20233;-72
2021/07/12 03:52:23;;;;;;;10.47;3.47;;;18.20;99.90;;;;;;5075153;28;20194;-72
2021/07/12 03:54:50;;;;;;;8.57;2.83;;;18.20;99.90;;;;;;5057556;28;20537;-73
2021/07/12 03:57:17;;;;;;;10.43;3.00;;;18.20;99.90;;;;;;5075423;28;20187;-74
2021/07/12 03:59:45;;;;;;;10.63;2.40;;;18.30;99.90;;;;;;5056784;28;20649;-73
2021/07/12 04:02:12;;;;;;;9.13;2.57;;;18.50;99.90;;;;;;5075192;28;20186;-71
2021/07/12 04:04:39;;;;;;;10.97;2.70;;;18.20;99.90;;;;;;5057128;28;20544;-72
2021/07/12 04:07:06;;;;;;;5.93;2.77;;;18.20;99.90;;;;;;5075372;28;20221;-71
2021/07/12 04:09:34;;;;;;;12.27;3.20;;;18.50;99.90;;;;;;5069207;28;20303;-74
2021/07/12 04:12:02;;;;;;;10.87;3.30;;;18.50;99.90;;;;;;5068358;28;20257;-75
2021/07/12 04:14:29;;;;;;;14.70;3.03;;;18.30;99.90;;;;;;5072855;28;20187;-72
2021/07/12 04:16:56;;;;;;;9.17;3.17;;;18.30;99.90;;;;;;5070736;28;20240;-75
2021/07/12 04:19:24;;;;;;;12.10;3.33;;;18.00;99.90;;;;;;5074004;28;20185;-78
2021/07/12 04:21:51;;;;;;;7.00;3.50;;;18.00;99.90;;;;;;5056814;28;20194;-73
2021/07/12 04:24:18;;;;;;;9.07;2.73;;;18.50;99.90;;;;;;5071253;28;20240;-75
2021/07/12 04:26:46;;;;;;;14.40;3.53;;;19.10;99.90;;;;;;5074673;28;20236;-72
2021/07/12 04:29:13;;;;;;;21.17;3.63;;;19.90;99.90;;;;;;5072229;28;20222;-73
2021/07/12 04:31:40;;;;;;;9.40;2.87;;;20.30;99.90;;;;;;5069031;28;20278;-75
2021/07/12 04:34:07;;;;;;;9.40;3.00;;;20.10;99.90;;;;;;5074544;28;20195;-74
2021/07/12 04:36:35;;;;;;;7.43;2.03;;;20.20;99.90;;;;;;5074026;28;20171;-72
2021/07/12 04:39:03;;;;;;;8.77;1.60;;;19.90;99.90;;;;;;5072263;28;20179;-77
2021/07/12 04:41:30;;;;;;;7.63;2.00;;;19.80;99.90;;;;;;5069961;28;20188;-78
2021/07/12 04:43:58;;;;;;;3.93;1.90;;;19.30;99.90;;;;;;5074197;28;20244;-73
2021/07/12 04:46:25;;;;;;;9.87;1.70;;;19.30;99.90;;;;;;5074146;28;20195;-75
2021/07/12 04:48:52;;;;;;;8.03;4.10;;;19.20;99.90;;;;;;5071035;28;20215;-73
2021/07/12 04:51:20;;;;;;;9.70;5.30;;;18.80;99.90;;;;;;5071774;28;20505;-73
2021/07/12 04:53:47;;;;;;;8.80;4.30;;;18.60;99.90;;;;;;5071128;28;20179;-71
2021/07/12 04:56:14;;;;;;;5.93;1.63;;;18.40;99.90;;;;;;5071411;28;20715;-72
2021/07/12 04:58:45;;;;;;;5.83;1.30;;;18.00;99.90;;;;;;5069648;28;20736;-73
2021/07/12 05:01:12;;;;;;;6.57;1.43;;;17.80;99.90;;;;;;5063115;28;20528;-80
2021/07/12 05:03:41;;;;;;;5.60;1.30;;;17.50;99.90;;;;;;5074768;28;20647;-78
2021/07/12 05:06:08;;;;;;;5.23;1.20;;;17.60;99.90;;;;;;5074477;28;20227;-73
2021/07/12 05:08:36;;;;;;;4.50;1.30;;;17.60;99.90;;;;;;5074625;28;20547;-72
2021/07/12 05:11:05;;;;;;;8.13;1.67;;;17.90;99.90;;;;;;5074801;28;20179;-72
2021/07/12 05:13:35;;;;;;;8.40;1.60;;;17.90;99.90;;;;;;5073973;28;20189;-72
2021/07/12 05:16:03;;;;;;;8.00;1.53;;;18.10;99.90;;;;;;5074447;28;20187;-75
2021/07/12 05:18:32;;;;;;;5.35;2.20;;;18.60;99.90;;;;;;5074356;28;20495;-71
2021/07/12 05:20:59;;;;;;;7.23;2.30;;;18.50;99.90;;;;;;5074808;28;20183;-73
2021/07/12 05:23:26;;;;;;;11.77;6.70;;;18.40;99.90;;;;;;5074592;28;20234;-78
2021/07/12 05:25:54;;;;;;;8.37;2.00;;;18.50;99.90;;;;;;5074294;28;20175;-71
2021/07/12 05:28:21;;;;;;;12.07;1.53;;;18.60;99.90;;;;;;5074098;28;20273;-72
2021/07/12 05:30:49;;;;;;;7.00;1.93;;;18.90;99.90;;;;;;5074409;28;20183;-73
2021/07/12 05:33:16;;;;;;;9.73;2.20;;;19.10;99.90;;;;;;5074441;28;20179;-75
2021/07/12 05:35:43;;;;;;;10.30;2.07;;;19.50;99.90;;;;;;5074447;28;20214;-72
2021/07/12 05:38:11;;;;;;;7.87;2.30;;;19.40;99.90;;;;;;5073455;28;22409;-72
2021/07/12 05:40:38;;;;;;;9.03;2.20;;;19.00;99.90;;;;;;5074279;28;20163;-73
2021/07/12 05:43:08;;;;;;;11.37;2.20;;;18.70;99.90;;;;;;5073575;28;20680;-78
2021/07/12 05:45:36;;;;;;;9.13;2.60;;;18.60;99.90;;;;;;5073544;28;20171;-74
2021/07/12 05:48:04;;;;;;;18.80;3.37;;;18.30;99.90;;;;;;5073721;28;20218;-74
2021/07/12 05:50:31;;;;;;;9.40;2.70;;;17.80;99.90;;;;;;5073994;28;20172;-75
2021/07/12 05:52:59;;;;;;;14.87;2.60;;;17.60;99.90;;;;;;5074075;28;20616;-73
2021/07/12 05:55:26;;;;;;;10.73;2.27;;;17.40;99.90;;;;;;5073656;28;20186;-73
2021/07/12 05:57:54;;;;;;;12.43;3.00;;;17.30;99.90;;;;;;5074049;28;20272;-72
2021/07/12 06:00:21;;;;;;;10.00;2.30;;;17.70;99.90;;;;;;5073855;28;20187;-74
2021/07/12 06:02:48;;;;;;;10.73;2.57;;;18.20;99.90;;;;;;5073479;28;20728;-72
2021/07/12 06:05:16;;;;;;;8.37;2.33;;;18.50;99.90;;;;;;5074010;28;20524;-72
2021/07/12 06:07:44;;;;;;;10.23;2.20;;;18.50;99.90;;;;;;5073558;28;20199;-77
2021/07/12 06:10:12;;;;;;;11.30;2.60;;;18.60;99.90;;;;;;5071807;28;20527;-76
2021/07/12 06:12:40;;;;;;;13.23;2.80;;;18.50;99.90;;;;;;5053779;28;20190;-76
2021/07/12 06:15:08;;;;;;;12.20;2.97;;;18.00;99.90;;;;;;5072255;28;20233;-73
2021/07/12 06:17:36;;;;;;;12.57;2.57;;;17.60;99.90;;;;;;5072587;28;20179;-72
2021/07/12 06:20:06;;;;;;;13.67;2.80;;;17.40;99.90;;;;;;5072718;28;20218;-74
2021/07/12 06:22:34;;;;;;;15.60;2.93;;;17.20;99.90;;;;;;5067185;28;20219;-80
2021/07/12 06:25:03;;;;;;;9.87;2.63;;;17.10;99.90;;;;;;5052087;28;20564;-73
2021/07/12 06:27:30;;;;;;;10.53;2.40;;;17.00;99.90;;;;;;5050980;28;20180;-71
2021/07/12 06:29:57;;;;;;;7.47;2.17;;;16.90;99.90;;;;;;5050613;28;20192;-71
2021/07/12 06:32:25;;;;;;;9.10;2.20;;;16.80;99.90;;;;;;5063473;28;20176;-72
2021/07/12 06:34:52;;;;;;;14.67;2.27;;;16.70;99.90;;;;;;5053060;28;20698;-72
2021/07/12 06:37:20;;;;;;;12.90;2.87;;;16.50;99.90;;;;;;5052957;28;20187;-72
2021/07/12 06:39:47;;;;;;;11.17;2.53;;;16.30;99.90;;;;;;5052014;28;20192;-74
2021/07/12 06:42:14;;;;;;;10.83;2.57;;;16.20;99.90;;;;;;5053051;28;20182;-71
2021/07/12 06:44:42;;;;;;;14.00;2.77;;;16.10;99.90;;;;;;5053489;28;20166;-73
2021/07/12 06:47:10;;;;;;;7.83;2.80;;;15.90;99.90;;;;;;5052859;28;20192;-71
2021/07/12 06:49:37;;;;;;;13.20;2.97;;;15.80;99.90;;;;;;5061116;28;20214;-73
2021/07/12 06:52:05;;;;;;;9.13;3.03;;;15.70;99.90;;;;;;5039308;28;20191;-73
2021/07/12 06:54:32;;;;;;;11.10;3.10;;;15.60;99.90;;;;;;5052045;28;20258;-71
2021/07/12 06:57:00;;;;;;;16.00;2.87;;;15.50;99.90;;;;;;5061339;28;20263;-75
2021/07/12 06:59:27;;;;;;;14.93;3.27;;;15.40;99.90;;;;;;5052396;28;20177;-76
2021/07/12 07:01:54;;;;;;;14.43;2.50;;;15.30;99.90;;;;;;5052268;28;20171;-75
2021/07/12 07:04:22;;;;;;;14.77;3.07;;;15.20;99.90;;;;;;5048557;28;20270;-72
2021/07/12 07:06:49;;;;;;;10.43;2.73;;;15.20;99.90;;;;;;5051320;28;20236;-70
2021/07/12 07:09:17;;;;;;;12.00;2.23;;;15.10;99.90;;;;;;5047360;28;20212;-74
2021/07/12 07:11:44;;;;;;;12.93;2.20;;;15.00;99.90;;;;;;5052601;28;20185;-73
2021/07/12 07:14:11;;;;;;;8.80;3.50;;;15.00;99.90;;;;;;5051846;28;20195;-72
2021/07/12 07:16:39;;;;;;;10.37;2.87;;;15.00;99.90;;;;;;5052369;28;20170;-75
2021/07/12 07:19:06;;;;;;;11.20;3.90;;;14.90;99.90;;;;;;5052629;28;20225;-74
2021/07/12 07:21:33;;;;;;;10.50;3.13;;;14.90;99.90;;;;;;5051755;28;20191;-73
2021/07/12 07:24:01;;;;;;;18.07;3.10;;;14.80;99.90;;;;;;5065800;28;20227;-71
2021/07/12 07:26:28;;;;;;;14.37;3.10;;;14.70;99.90;;;;;;5052677;28;20549;-74
2021/07/12 07:28:56;;;;;;;9.70;2.23;;;14.70;99.90;;;;;;5052400;28;20282;-77
2021/07/12 07:31:24;;;;;;;12.50;2.63;;;14.70;99.90;;;;;;5052630;28;20168;-72
2021/07/12 07:33:52;;;;;;;8.77;3.10;;;14.60;99.90;;;;;;5052334;28;20187;-72
2021/07/12 07:36:19;;;;;;;12.00;3.70;;;14.60;99.90;;;;;;5057175;28;20206;-71
2021/07/12 07:38:47;;;;;;;9.20;2.40;;;14.60;99.90;;;;;;5063252;28;20226;-71
2021/07/12 07:41:14;;;;;;;11.60;3.77;;;14.50;99.90;;;;;;5034237;28;20172;-76
2021/07/12 07:43:42;;;;;;;15.30;3.63;;;14.50;99.90;;;;;;5034634;28;20180;-72
2021/07/12 07:46:09;;;;;;;12.40;3.70;;;14.50;99.90;;;;;;5034397;28;20605;-71
2021/07/12 07:48:38;;;;;;;15.87;3.60;;;14.40;99.90;;;;;;5051645;28;20309;-72
2021/07/12 07:51:05;;;;;;;10.77;2.50;;;14.40;99.90;;;;;;5053169;28;20203;-75
2021/07/12 07:53:35;;;;;;;14.93;3.70;;;14.30;99.90;;;;;;5061156;28;20620;-72
2021/07/12 07:56:02;;;;;;;11.50;4.23;;;14.30;99.90;;;;;;5052251;28;20187;-69
2021/07/12 07:58:30;;;;;;;20.80;3.93;;;14.30;99.90;;;;;;5070702;28;20182;-69
2021/07/12 08:00:58;;;;;;;17.20;3.43;;;14.20;99.90;;;;;;5051605;28;20187;-71
2021/07/12 08:03:25;;;;;;;22.07;3.93;;;14.20;99.90;;;;;;5051644;28;20585;-75
2021/07/12 08:05:52;;;;;;;11.77;3.53;;;14.10;99.90;;;;;;5046922;28;20278;-70
2021/07/12 08:08:21;;;;;;;17.47;4.20;;;14.10;99.90;;;;;;5035546;28;20205;-73
2021/07/12 08:10:49;;;;;;;21.13;3.83;;;14.10;99.90;;;;;;5037002;28;20184;-75
2021/07/12 08:13:16;;;;;;;18.23;5.07;;;14.00;99.90;;;;;;5050114;28;20210;-74
2021/07/12 08:15:43;;;;;;;14.67;3.70;;;14.10;99.90;;;;;;5038689;28;20266;-75
2021/07/12 08:18:11;;;;;;;12.80;3.47;;;14.00;99.90;;;;;;5050088;28;20172;-71
2021/07/12 08:20:38;;;;;;;16.67;3.23;;;14.00;99.90;;;;;;5051194;28;20188;-74
2021/07/12 08:23:06;;;;;;;15.97;4.47;;;14.00;99.90;;;;;;5072019;28;20229;-73
2021/07/12 08:25:33;;;;;;;18.70;4.47;;;14.00;99.90;;;;;;5066668;28;20186;-77
2021/07/12 08:28:01;;;;;;;17.33;5.70;;;14.00;99.90;;;;;;5089719;28;20550;-70
2021/07/12 08:30:28;;;;;;;24.50;6.33;;;14.00;99.90;;;;;;5072948;28;20187;-75
2021/07/12 08:32:55;;;;;;;17.33;5.37;;;14.00;99.90;;;;;;5083721;28;20178;-71
2021/07/12 08:35:23;;;;;;;18.27;4.33;;;13.90;99.90;;;;;;5091654;28;20178;-72
2021/07/12 08:37:51;;;;;;;19.53;4.40;;;13.90;99.90;;;;;;5081049;28;20635;-73
2021/07/12 08:40:21;;;;;;;16.63;3.70;;;13.90;99.90;;;;;;5083797;28;20269;-71
2021/07/12 08:42:54;;;;;;;23.57;4.07;;;13.90;99.90;;;;;;5084306;28;20183;-72
2021/07/12 08:45:22;;;;;;;13.03;3.30;;;13.80;99.90;;;;;;5081216;28;20831;-71
2021/07/12 08:47:51;;;;;;;14.80;4.30;;;13.80;99.90;;;;;;5075254;28;20269;-76
2021/07/12 08:50:20;;;;;;;16.60;3.10;;;13.80;99.90;;;;;;5071854;28;20215;-73
2021/07/12 08:52:50;;;;;;;16.50;3.53;;;13.90;99.90;;;;;;5072736;28;20215;-73
2021/07/12 08:55:18;;;;;;;14.07;4.37;;;13.90;99.90;;;;;;5075028;28;20179;-78
2021/07/12 08:58:05;;;;;;;14.70;3.70;;;13.90;99.90;;;;;;5077247;28;20178;-73
2021/07/12 09:00:48;;;;;;;22.30;3.50;;;13.90;99.90;;;;;;5082753;28;20234;-73
2021/07/12 09:03:36;;;;;;;13.97;4.00;;;13.90;99.90;;;;;;5081450;28;20641;-70
2021/07/12 09:06:13;;;;;;;10.67;3.10;;;13.90;99.90;;;;;;5082231;28;20258;-71
2021/07/12 09:08:52;;;;;;;12.77;3.33;;;13.90;99.90;;;;;;5069461;28;20755;-73
2021/07/12 09:11:24;;;;;;;11.10;3.33;;;13.90;99.90;;;;;;5075007;28;20530;-72
2021/07/12 09:13:56;;;;;;;16.73;4.10;;;13.90;99.90;;;;;;5076873;28;20581;-75
2021/07/12 09:16:41;;;;;;;16.63;3.57;;;13.90;99.90;;;;;;5076022;28;20663;-74
2021/07/12 09:19:29;;;;;;;11.47;3.77;;;13.90;99.90;;;;;;5092833;28;20186;-74
2021/07/12 09:22:12;;;;;;;17.23;4.03;;;13.90;99.90;;;;;;5086888;28;20178;-70
2021/07/12 09:24:54;;;;;;;10.63;3.77;;;13.90;99.90;;;;;;5075942;28;20608;-75
2021/07/12 09:27:24;;;;;;;16.17;4.90;;;13.90;99.90;;;;;;5069892;28;20275;-72
2021/07/12 09:30:06;;;;;;;12.83;3.77;;;13.90;99.90;;;;;;5069747;28;20196;-76
2021/07/12 09:32:35;;;;;;;12.93;4.23;;;13.90;99.90;;;;;;5074086;28;20210;-75
2021/07/12 09:35:06;;;;;;;17.13;4.33;;;13.90;99.90;;;;;;5074655;28;20262;-77
2021/07/12 09:37:38;;;;;;;20.10;4.67;;;13.90;99.90;;;;;;5077658;28;20181;-75
2021/07/12 09:40:09;;;;;;;13.40;3.23;;;13.80;99.90;;;;;;5081811;28;20190;-76
2021/07/12 09:42:39;;;;;;;12.03;5.47;;;13.80;99.90;;;;;;5056131;28;20245;-73
2021/07/12 09:45:09;;;;;;;19.30;4.77;;;13.80;99.90;;;;;;5080136;28;20220;-71
2021/07/12 09:47:39;;;;;;;12.80;4.33;;;13.90;99.90;;;;;;5073907;28;20255;-72
2021/07/12 09:50:12;;;;;;;8.23;2.90;;;13.90;99.90;;;;;;5073719;28;20219;-70
2021/07/12 09:52:41;;;;;;;7.93;2.40;;;13.90;99.90;;;;;;5073948;28;20191;-73
2021/07/12 09:55:14;;;;;;;13.03;2.83;;;13.90;99.90;;;;;;5073574;28;20175;-76
2021/07/12 09:57:42;;;;;;;8.10;2.90;;;13.90;99.90;;;;;;5072837;28;20186;-70
2021/07/12 10:00:10;;;;;;;12.50;2.93;;;13.90;99.90;;;;;;5076491;28;20194;-74
2021/07/12 10:02:42;;;;;;;8.83;3.03;;;14.00;99.90;;;;;;5073185;28;20179;-80
2021/07/12 10:05:11;;;;;;;6.67;2.70;;;14.00;99.90;;;;;;5073493;28;20272;-77
2021/07/12 10:07:39;;;;;;;10.40;2.90;;;14.00;99.90;;;;;;5073172;28;20195;-72
2021/07/12 10:10:13;;;;;;;12.97;2.67;;;14.00;99.90;;;;;;5076620;28;20228;-76
2021/07/12 10:12:45;;;;;;;11.63;2.77;;;14.00;99.90;;;;;;5072753;28;20185;-75
2021/07/12 10:15:16;;;;;;;16.50;3.50;;;14.00;99.90;;;;;;5072817;28;20262;-76
2021/07/12 10:17:45;;;;;;;11.97;5.03;;;13.90;99.90;;;;;;5073064;28;20179;-75
2021/07/12 10:20:14;;;;;;;9.40;3.40;;;13.90;99.90;;;;;;5071669;28;20355;-76
2021/07/12 10:22:42;;;;;;;16.27;6.53;;;13.90;99.90;;;;;;5073281;28;20573;-77
2021/07/12 10:25:18;;;;;;;11.13;2.90;;;13.80;99.90;;;;;;5072543;28;20278;-72
2021/07/12 10:27:48;;;;;;;9.87;2.77;;;13.80;99.90;;;;;;5073262;28;20623;-73
2021/07/12 10:30:47;;;;;;;11.03;3.37;;;13.80;99.90;;;;;;5072657;28;20260;-72
2021/07/12 10:33:16;;;;;;;7.00;2.47;;;13.80;99.90;;;;;;5072277;28;20646;-76
2021/07/12 10:35:53;;;;;;;11.80;2.93;;;13.80;99.90;;;;;;5073158;28;20645;-75
2021/07/12 10:38:27;;;;;;;7.23;2.57;;;13.80;99.90;;;;;;5069103;28;20175;-76
2021/07/12 10:41:01;;;;;;;10.77;2.60;;;13.70;99.90;;;;;;5072210;28;20198;-75
2021/07/12 10:43:44;;;;;;;8.70;2.50;;;13.70;99.90;;;;;;5072597;28;20643;-77
2021/07/12 10:46:34;;;;;;;9.17;2.43;;;13.70;99.90;;;;;;5072429;28;20193;-80
2021/07/12 10:49:26;;;;;;;8.00;2.70;;;13.70;99.90;;;;;;5071562;28;20680;-73
2021/07/12 10:51:53;;;;;;;12.63;3.40;;;13.60;99.90;;;;;;5062718;28;20653;-74
2021/07/12 10:54:22;;;;;;;8.87;2.93;;;13.60;99.90;;;;;;5071528;28;20175;-76
2021/07/12 10:56:59;;;;;;;8.67;3.20;;;13.60;99.90;;;;;;5070898;28;20589;-80
2021/07/12 10:59:39;;;;;;;8.33;2.80;;;13.50;99.90;;;;;;5068653;28;20235;-73
2021/07/12 11:02:18;;;;;;;12.40;3.53;;;13.40;99.90;;;;;;5072135;28;20187;-79
2021/07/12 11:05:09;;;;;;;18.30;9.97;;;13.40;99.90;;;;;;5072675;28;20175;-76
2021/07/12 11:07:48;;;;;;;14.37;5.43;;;13.30;99.90;;;;;;5065082;28;20183;-78
2021/07/12 11:10:27;;;;;;;11.37;4.60;;;13.30;99.90;;;;;;5060075;28;20183;-72
2021/07/12 11:12:57;;;;;;;10.30;4.90;;;13.30;99.90;;;;;;5071894;28;20715;-78
2021/07/12 11:15:25;;;;;;;11.73;4.83;;;13.20;99.90;;;;;;5072654;28;20183;-72
2021/07/12 11:18:04;;;;;;;12.27;4.00;;;13.10;99.90;;;;;;5072391;28;20195;-78
2021/07/12 11:21:02;;;;;;;9.73;3.73;;;13.10;99.90;;;;;;5072425;28;20187;-74
2021/07/12 11:23:49;;;;;;;13.80;3.70;;;13.20;99.90;;;;;;5072139;28;20748;-74
2021/07/12 11:26:27;;;;;;;10.80;3.77;;;13.20;99.90;;;;;;5072303;28;20650;-77
2021/07/12 11:29:10;;;;;;;6.13;3.63;;;13.10;99.90;;;;;;5069579;28;20229;-70
2021/07/12 11:31:59;;;;;;;11.13;3.70;;;13.20;99.90;;;;;;5072024;28;20278;-79
2021/07/12 11:34:29;;;;;;;9.63;3.30;;;13.10;99.90;;;;;;5072676;28;20242;-78
2021/07/12 11:37:01;;;;;;;8.70;3.57;;;13.00;99.90;;;;;;5071914;28;20179;-73
2021/07/12 11:39:32;;;;;;;8.57;3.80;;;13.00;99.90;;;;;;5071946;28;20183;-72
2021/07/12 11:42:11;;;;;;;8.17;3.50;;;12.90;99.90;;;;;;5070813;28;20183;-76
2021/07/12 11:44:38;;;;;;;10.23;3.70;;;12.80;99.90;;;;;;5065396;28;20178;-69
2021/07/12 11:47:39;;;;;;;12.17;3.83;;;12.80;99.90;;;;;;5071998;28;20183;-75
2021/07/12 11:50:18;;;;;;;9.90;4.33;;;12.80;99.90;;;;;;5015439;28;20322;-76
2021/07/12 11:52:49;;;;;;;18.77;4.73;;;12.70;99.90;;;;;;5066169;28;20179;-76
2021/07/12 11:55:28;;;;;;;16.30;4.23;;;12.70;99.90;;;;;;5071699;28;20571;-77
2021/07/12 11:57:58;;;;;;;13.77;4.20;;;12.60;99.90;;;;;;5071958;28;20190;-72
2021/07/12 12:00:37;;;;;;;13.73;4.30;;;12.60;99.90;;;;;;5072261;28;20269;-76
2021/07/12 12:03:16;;;;;;;16.03;4.33;;;12.50;99.90;;;;;;5071879;28;20171;-75
2021/07/12 12:05:45;;;;;;;12.10;4.53;;;12.50;99.90;;;;;;5072373;28;20198;-74
2021/07/12 12:08:21;;;;;;;10.80;3.53;;;12.50;99.90;;;;;;5056225;28;20540;-74
2021/07/12 12:10:51;;;;;;;17.13;4.10;;;12.50;99.90;;;;;;5065312;28;20183;-72
2021/07/12 12:13:21;;;;;;;5.93;3.10;;;12.50;99.90;;;;;;5076297;28;20651;-80
2021/07/12 12:15:53;;;;;;;9.07;3.07;;;12.60;99.90;;;;;;5076675;28;20191;-69
2021/07/12 12:18:30;;;;;;;12.93;3.30;;;12.50;99.90;;;;;;5075732;28;20171;-70
2021/07/12 12:21:01;;;;;;;12.40;4.57;;;12.40;99.90;;;;;;5077485;28;20231;-70
2021/07/12 12:23:33;;;;;;;15.53;5.57;;;12.40;99.90;;;;;;5077765;28;20227;-76
2021/07/12 12:26:13;;;;;;;10.07;4.10;;;12.30;99.90;;;;;;5078303;28;20294;-76
2021/07/12 12:29:00;;;;;;;5.57;3.87;;;12.30;99.90;;;;;;5077162;28;20218;-76
2021/07/12 12:31:30;;;;;;;11.87;3.77;;;12.20;99.90;;;;;;5077781;28;20505;-71
2021/07/12 12:34:01;;;;;;;6.80;3.10;;;12.10;99.90;;;;;;5077553;28;20533;-71
2021/07/12 12:36:36;;;;;;;9.90;3.40;;;12.10;99.90;;;;;;5071150;28;20179;-79
2021/07/12 12:39:07;;;;;;;13.67;3.93;;;12.10;99.90;;;;;;5064477;28;20546;-75
2021/07/12 12:41:39;;;;;;;10.30;4.30;;;12.10;99.90;;;;;;5075554;28;20167;-69
2021/07/12 12:44:09;;;;;;;8.67;4.17;;;12.10;99.90;;;;;;5073676;28;20202;-71
2021/07/12 12:46:39;;;;;;;8.10;3.30;;;12.10;99.90;;;;;;5064125;28;20559;-74
2021/07/12 12:49:22;;;;;;;12.90;4.27;;;12.10;99.90;;;;;;5075344;28;20219;-76
2021/07/12 12:51:55;;;;;;;8.80;3.63;;;12.10;99.90;;;;;;5071843;28;20186;-75
2021/07/12 12:54:33;;;;;;;11.20;3.77;;;12.10;99.90;;;;;;5074455;28;20198;-77
2021/07/12 12:57:01;;;;;;;12.23;5.77;;;12.10;99.90;;;;;;5076631;28;20339;-78
2021/07/12 12:59:39;;;;;;;17.00;9.70;;;12.20;99.90;;;;;;5075029;28;20186;-75
2021/07/12 13:02:15;;;;;;;13.97;7.20;;;12.20;99.90;;;;;;5058953;28;20211;-76
2021/07/12 13:04:46;;;;;;;14.73;7.10;;;12.20;99.90;;;;;;5076683;28;20179;-75